sensor_id;sensor_type;location;lat;lon;timestamp;temperature;humidity
52555;DHT22;38455;52.710;6.502;2022-10-26T00:01:09;10.30;99.90
52555;DHT22;38455;52.710;6.502;2022-10-26T00:03:35;10.30;99.90
52555;DHT22;38455;52.710;6.502;2022-10-26T00:06:14;10.30;99.90
52555;DHT22;38455;52.710;6.502;2022-10-26T00:08:40;10.30;99.90
52555;DHT22;38455;52.710;6.502;2022-10-26T00:11:06;10.30;99.90
52555;DHT22;38455;52.710;6.502;2022-10-26T00:13:33;10.30;99.90
52555;DHT22;38455;52.710;6.502;2022-10-26T00:16:00;10.20;99.90
52555;DHT22;38455;52.710;6.502;2022-10-26T00:18:25;10.10;99.90
52555;DHT22;38455;52.710;6.502;2022-10-26T00:20:51;10.10;99.90
52555;DHT22;38455;52.710;6.502;2022-10-26T00:23:17;10.00;99.90
52555;DHT22;38455;52.710;6.502;2022-10-26T00:25:43;9.90;99.90
52555;DHT22;38455;52.710;6.502;2022-10-26T00:28:08;9.90;99.90
52555;DHT22;38455;52.710;6.502;2022-10-26T00:30:38;9.90;99.90
52555;DHT22;38455;52.710;6.502;2022-10-26T00:33:03;9.90;99.90
52555;DHT22;38455;52.710;6.502;2022-10-26T00:35:29;9.90;99.90
52555;DHT22;38455;52.710;6.502;2022-10-26T00:37:55;9.90;99.90
52555;DHT22;38455;52.710;6.502;2022-10-26T00:40:21;10.00;99.90
52555;DHT22;38455;52.710;6.502;2022-10-26T00:42:51;10.00;99.90
52555;DHT22;38455;52.710;6.502;2022-10-26T00:45:22;9.90;99.90
52555;DHT22;38455;52.710;6.502;2022-10-26T00:50:27;9.80;99.90
52555;DHT22;38455;52.710;6.502;2022-10-26T00:52:53;9.80;99.90
52555;DHT22;38455;52.710;6.502;2022-10-26T00:55:22;9.80;99.90
52555;DHT22;38455;52.710;6.502;2022-10-26T00:57:50;9.70;99.90
52555;DHT22;38455;52.710;6.502;2022-10-26T01:00:17;9.60;99.90
52555;DHT22;38455;52.710;6.502;2022-10-26T01:02:45;9.70;99.90
52555;DHT22;38455;52.710;6.502;2022-10-26T01:05:13;9.60;99.90
52555;DHT22;38455;52.710;6.502;2022-10-26T01:07:40;9.60;99.90
52555;DHT22;38455;52.710;6.502;2022-10-26T01:10:07;9.60;99.90
52555;DHT22;38455;52.710;6.502;2022-10-26T01:12:33;9.60;99.90
52555;DHT22;38455;52.710;6.502;2022-10-26T01:14:59;9.60;99.90
52555;DHT22;38455;52.710;6.502;2022-10-26T01:17:56;9.60;99.90
52555;DHT22;38455;52.710;6.502;2022-10-26T01:23:12;9.60;99.90
52555;DHT22;38455;52.710;6.502;2022-10-26T01:31:28;9.40;99.90
52555;DHT22;38455;52.710;6.502;2022-10-26T01:34:02;9.20;99.90
52555;DHT22;38455;52.710;6.502;2022-10-26T01:36:40;9.20;99.90
52555;DHT22;38455;52.710;6.502;2022-10-26T01:39:15;9.10;99.90
52555;DHT22;38455;52.710;6.502;2022-10-26T01:41:57;9.10;99.90
52555;DHT22;38455;52.710;6.502;2022-10-26T01:44:31;9.00;99.90
52555;DHT22;38455;52.710;6.502;2022-10-26T01:46:58;9.00;99.90
52555;DHT22;38455;52.710;6.502;2022-10-26T01:49:28;9.00;99.90
52555;DHT22;38455;52.710;6.502;2022-10-26T01:51:55;9.10;99.90
52555;DHT22;38455;52.710;6.502;2022-10-26T01:54:21;9.10;99.90
52555;DHT22;38455;52.710;6.502;2022-10-26T01:56:52;9.20;99.90
52555;DHT22;38455;52.710;6.502;2022-10-26T02:05:45;9.00;99.90
52555;DHT22;38455;52.710;6.502;2022-10-26T02:11:31;9.20;99.90
52555;DHT22;38455;52.710;6.502;2022-10-26T02:14:15;9.30;99.90
52555;DHT22;38455;52.710;6.502;2022-10-26T02:16:54;9.30;99.90
52555;DHT22;38455;52.710;6.502;2022-10-26T02:19:50;9.40;99.90
52555;DHT22;38455;52.710;6.502;2022-10-26T02:22:25;9.40;99.90
52555;DHT22;38455;52.710;6.502;2022-10-26T02:24:55;9.50;99.90
52555;DHT22;38455;52.710;6.502;2022-10-26T02:27:25;9.40;99.90
52555;DHT22;38455;52.710;6.502;2022-10-26T02:29:53;9.50;99.90
52555;DHT22;38455;52.710;6.502;2022-10-26T02:32:21;9.50;99.90
52555;DHT22;38455;52.710;6.502;2022-10-26T02:34:49;9.60;99.90
52555;DHT22;38455;52.710;6.502;2022-10-26T02:37:18;9.60;99.90
52555;DHT22;38455;52.710;6.502;2022-10-26T02:39:46;9.60;99.90
52555;DHT22;38455;52.710;6.502;2022-10-26T02:42:14;9.70;99.90
52555;DHT22;38455;52.710;6.502;2022-10-26T02:44:53;9.70;99.90
52555;DHT22;38455;52.710;6.502;2022-10-26T02:47:20;9.70;99.90
52555;DHT22;38455;52.710;6.502;2022-10-26T02:49:46;9.70;99.90
52555;DHT22;38455;52.710;6.502;2022-10-26T02:55:16;9.70;99.90
52555;DHT22;38455;52.710;6.502;2022-10-26T02:57:46;9.70;99.90
52555;DHT22;38455;52.710;6.502;2022-10-26T03:00:16;9.80;99.90
52555;DHT22;38455;52.710;6.502;2022-10-26T03:02:44;9.70;99.90
52555;DHT22;38455;52.710;6.502;2022-10-26T03:05:15;9.80;99.90
52555;DHT22;38455;52.710;6.502;2022-10-26T03:07:41;9.90;99.90
52555;DHT22;38455;52.710;6.502;2022-10-26T03:10:07;9.90;99.90
52555;DHT22;38455;52.710;6.502;2022-10-26T03:12:32;9.80;99.90
52555;DHT22;38455;52.710;6.502;2022-10-26T03:14:58;9.80;99.90
52555;DHT22;38455;52.710;6.502;2022-10-26T03:17:23;9.80;99.90
52555;DHT22;38455;52.710;6.502;2022-10-26T03:19:49;9.90;99.90
52555;DHT22;38455;52.710;6.502;2022-10-26T03:22:15;9.80;99.90
52555;DHT22;38455;52.710;6.502;2022-10-26T03:24:40;9.80;99.90
52555;DHT22;38455;52.710;6.502;2022-10-26T03:27:06;9.80;99.90
52555;DHT22;38455;52.710;6.502;2022-10-26T03:29:31;9.80;99.90
52555;DHT22;38455;52.710;6.502;2022-10-26T03:31:57;9.80;99.90
52555;DHT22;38455;52.710;6.502;2022-10-26T03:34:22;9.70;99.90
52555;DHT22;38455;52.710;6.502;2022-10-26T03:36:48;9.70;99.90
52555;DHT22;38455;52.710;6.502;2022-10-26T03:39:14;9.70;99.90
52555;DHT22;38455;52.710;6.502;2022-10-26T03:41:39;9.70;99.90
52555;DHT22;38455;52.710;6.502;2022-10-26T03:44:05;9.70;99.90
52555;DHT22;38455;52.710;6.502;2022-10-26T03:46:31;9.60;99.90
52555;DHT22;38455;52.710;6.502;2022-10-26T03:48:57;9.60;99.90
52555;DHT22;38455;52.710;6.502;2022-10-26T03:51:22;9.60;99.90
52555;DHT22;38455;52.710;6.502;2022-10-26T03:53:48;9.60;99.90
52555;DHT22;38455;52.710;6.502;2022-10-26T03:56:13;9.60;99.90
52555;DHT22;38455;52.710;6.502;2022-10-26T03:58:39;9.50;99.90
52555;DHT22;38455;52.710;6.502;2022-10-26T04:01:05;9.50;99.90
52555;DHT22;38455;52.710;6.502;2022-10-26T04:03:30;9.50;99.90
52555;DHT22;38455;52.710;6.502;2022-10-26T04:05:59;9.50;99.90
52555;DHT22;38455;52.710;6.502;2022-10-26T04:08:25;9.50;99.90
52555;DHT22;38455;52.710;6.502;2022-10-26T04:10:51;9.50;99.90
52555;DHT22;38455;52.710;6.502;2022-10-26T04:13:16;9.60;99.90
52555;DHT22;38455;52.710;6.502;2022-10-26T04:15:42;9.60;99.90
52555;DHT22;38455;52.710;6.502;2022-10-26T04:18:08;9.60;99.90
52555;DHT22;38455;52.710;6.502;2022-10-26T04:20:37;9.60;99.90
52555;DHT22;38455;52.710;6.502;2022-10-26T04:23:05;9.60;99.90
52555;DHT22;38455;52.710;6.502;2022-10-26T04:25:32;9.70;99.90
52555;DHT22;38455;52.710;6.502;2022-10-26T04:27:59;9.70;99.90
52555;DHT22;38455;52.710;6.502;2022-10-26T04:30:25;9.70;99.90
52555;DHT22;38455;52.710;6.502;2022-10-26T04:32:50;9.80;99.90
52555;DHT22;38455;52.710;6.502;2022-10-26T04:35:16;9.80;99.90
52555;DHT22;38455;52.710;6.502;2022-10-26T04:37:42;9.80;99.90
52555;DHT22;38455;52.710;6.502;2022-10-26T04:40:07;9.90;99.90
52555;DHT22;38455;52.710;6.502;2022-10-26T04:42:46;9.90;99.90
52555;DHT22;38455;52.710;6.502;2022-10-26T04:45:13;9.90;99.90
52555;DHT22;38455;52.710;6.502;2022-10-26T04:47:39;10.00;99.90
52555;DHT22;38455;52.710;6.502;2022-10-26T04:50:06;10.00;99.90
52555;DHT22;38455;52.710;6.502;2022-10-26T04:52:34;10.00;99.90
52555;DHT22;38455;52.710;6.502;2022-10-26T04:55:00;10.00;99.90
52555;DHT22;38455;52.710;6.502;2022-10-26T04:57:26;10.10;99.90
52555;DHT22;38455;52.710;6.502;2022-10-26T04:59:51;10.00;99.90
52555;DHT22;38455;52.710;6.502;2022-10-26T05:02:17;10.10;99.90
52555;DHT22;38455;52.710;6.502;2022-10-26T05:04:42;10.10;99.90
52555;DHT22;38455;52.710;6.502;2022-10-26T05:07:08;10.10;99.90
52555;DHT22;38455;52.710;6.502;2022-10-26T05:09:33;10.10;99.90
52555;DHT22;38455;52.710;6.502;2022-10-26T05:11:59;10.20;99.90
52555;DHT22;38455;52.710;6.502;2022-10-26T05:14:25;10.20;99.90
52555;DHT22;38455;52.710;6.502;2022-10-26T05:16:50;10.20;99.90
52555;DHT22;38455;52.710;6.502;2022-10-26T05:19:16;10.20;99.90
52555;DHT22;38455;52.710;6.502;2022-10-26T05:21:42;10.20;99.90
52555;DHT22;38455;52.710;6.502;2022-10-26T05:24:07;10.20;99.90
52555;DHT22;38455;52.710;6.502;2022-10-26T05:26:33;10.30;99.90
52555;DHT22;38455;52.710;6.502;2022-10-26T05:28:59;10.30;99.90
52555;DHT22;38455;52.710;6.502;2022-10-26T05:31:24;10.30;99.90
52555;DHT22;38455;52.710;6.502;2022-10-26T05:33:50;10.30;99.90
52555;DHT22;38455;52.710;6.502;2022-10-26T05:36:17;10.30;99.90
52555;DHT22;38455;52.710;6.502;2022-10-26T05:38:43;10.30;99.90
52555;DHT22;38455;52.710;6.502;2022-10-26T05:41:08;10.40;99.90
52555;DHT22;38455;52.710;6.502;2022-10-26T05:43:34;10.40;99.90
52555;DHT22;38455;52.710;6.502;2022-10-26T05:45:59;10.40;99.90
52555;DHT22;38455;52.710;6.502;2022-10-26T05:48:25;10.40;99.90
52555;DHT22;38455;52.710;6.502;2022-10-26T05:50:51;10.40;99.90
52555;DHT22;38455;52.710;6.502;2022-10-26T05:53:16;10.40;99.90
52555;DHT22;38455;52.710;6.502;2022-10-26T05:55:42;10.50;99.90
52555;DHT22;38455;52.710;6.502;2022-10-26T05:58:10;10.50;99.90
52555;DHT22;38455;52.710;6.502;2022-10-26T06:00:39;10.50;99.90
52555;DHT22;38455;52.710;6.502;2022-10-26T06:05:51;10.50;99.90
52555;DHT22;38455;52.710;6.502;2022-10-26T06:08:18;10.50;99.90
52555;DHT22;38455;52.710;6.502;2022-10-26T06:10:46;10.50;99.90
52555;DHT22;38455;52.710;6.502;2022-10-26T06:13:11;10.50;99.90
52555;DHT22;38455;52.710;6.502;2022-10-26T06:18:22;10.50;99.90
52555;DHT22;38455;52.710;6.502;2022-10-26T06:26:39;10.60;99.90
52555;DHT22;38455;52.710;6.502;2022-10-26T06:31:55;10.50;99.90
52555;DHT22;38455;52.710;6.502;2022-10-26T06:34:26;10.40;99.90
52555;DHT22;38455;52.710;6.502;2022-10-26T06:36:55;10.40;99.90
52555;DHT22;38455;52.710;6.502;2022-10-26T06:39:22;10.40;99.90
52555;DHT22;38455;52.710;6.502;2022-10-26T06:41:49;10.40;99.90
52555;DHT22;38455;52.710;6.502;2022-10-26T06:44:21;10.40;99.90
52555;DHT22;38455;52.710;6.502;2022-10-26T06:47:05;10.50;99.90
52555;DHT22;38455;52.710;6.502;2022-10-26T06:50:08;10.50;99.90
52555;DHT22;38455;52.710;6.502;2022-10-26T06:52:41;10.50;99.90
52555;DHT22;38455;52.710;6.502;2022-10-26T06:55:15;10.60;99.90
52555;DHT22;38455;52.710;6.502;2022-10-26T06:57:42;10.70;99.90
52555;DHT22;38455;52.710;6.502;2022-10-26T07:00:20;10.80;99.90
52555;DHT22;38455;52.710;6.502;2022-10-26T07:02:46;10.90;99.90
52555;DHT22;38455;52.710;6.502;2022-10-26T07:05:12;11.00;99.90
52555;DHT22;38455;52.710;6.502;2022-10-26T07:07:43;11.10;99.90
52555;DHT22;38455;52.710;6.502;2022-10-26T07:10:10;11.20;99.90
52555;DHT22;38455;52.710;6.502;2022-10-26T07:12:36;11.30;99.90
52555;DHT22;38455;52.710;6.502;2022-10-26T07:15:03;11.20;99.90
52555;DHT22;38455;52.710;6.502;2022-10-26T07:17:29;11.30;99.90
52555;DHT22;38455;52.710;6.502;2022-10-26T07:19:55;11.40;99.90
52555;DHT22;38455;52.710;6.502;2022-10-26T07:22:21;11.40;99.90
52555;DHT22;38455;52.710;6.502;2022-10-26T07:24:46;11.40;99.90
52555;DHT22;38455;52.710;6.502;2022-10-26T07:27:16;11.30;99.90
52555;DHT22;38455;52.710;6.502;2022-10-26T07:29:44;11.40;99.90
52555;DHT22;38455;52.710;6.502;2022-10-26T07:32:10;11.50;99.90
52555;DHT22;38455;52.710;6.502;2022-10-26T07:34:35;11.60;99.90
52555;DHT22;38455;52.710;6.502;2022-10-26T07:37:01;11.70;99.90
52555;DHT22;38455;52.710;6.502;2022-10-26T07:39:27;12.40;99.90
52555;DHT22;38455;52.710;6.502;2022-10-26T07:41:52;13.30;99.90
52555;DHT22;38455;52.710;6.502;2022-10-26T07:44:18;13.60;99.90
52555;DHT22;38455;52.710;6.502;2022-10-26T07:46:44;13.90;99.90
52555;DHT22;38455;52.710;6.502;2022-10-26T07:49:10;15.00;99.90
52555;DHT22;38455;52.710;6.502;2022-10-26T07:51:35;15.80;99.90
52555;DHT22;38455;52.710;6.502;2022-10-26T07:54:01;16.50;99.90
52555;DHT22;38455;52.710;6.502;2022-10-26T07:56:27;17.20;99.90
52555;DHT22;38455;52.710;6.502;2022-10-26T07:58:53;18.00;99.90
52555;DHT22;38455;52.710;6.502;2022-10-26T08:01:19;18.40;99.90
52555;DHT22;38455;52.710;6.502;2022-10-26T08:03:45;18.70;99.90
52555;DHT22;38455;52.710;6.502;2022-10-26T08:06:10;19.60;99.90
52555;DHT22;38455;52.710;6.502;2022-10-26T08:08:36;20.00;99.90
52555;DHT22;38455;52.710;6.502;2022-10-26T08:11:03;20.10;99.90
52555;DHT22;38455;52.710;6.502;2022-10-26T08:13:29;19.80;99.90
52555;DHT22;38455;52.710;6.502;2022-10-26T08:15:59;18.90;99.90
52555;DHT22;38455;52.710;6.502;2022-10-26T08:18:25;18.20;99.90
52555;DHT22;38455;52.710;6.502;2022-10-26T08:20:51;17.60;99.90
52555;DHT22;38455;52.710;6.502;2022-10-26T08:23:17;16.90;99.90
52555;DHT22;38455;52.710;6.502;2022-10-26T08:25:42;16.70;99.90
52555;DHT22;38455;52.710;6.502;2022-10-26T08:28:08;16.20;99.90
52555;DHT22;38455;52.710;6.502;2022-10-26T08:30:34;16.90;99.90
52555;DHT22;38455;52.710;6.502;2022-10-26T08:33:05;17.40;99.90
52555;DHT22;38455;52.710;6.502;2022-10-26T08:35:31;18.60;99.90
52555;DHT22;38455;52.710;6.502;2022-10-26T08:37:57;19.50;99.90
52555;DHT22;38455;52.710;6.502;2022-10-26T08:40:26;20.50;99.90
52555;DHT22;38455;52.710;6.502;2022-10-26T08:43:01;20.90;99.90
52555;DHT22;38455;52.710;6.502;2022-10-26T08:45:40;21.20;99.90
52555;DHT22;38455;52.710;6.502;2022-10-26T08:48:16;21.30;99.90
52555;DHT22;38455;52.710;6.502;2022-10-26T08:50:53;21.40;99.90
52555;DHT22;38455;52.710;6.502;2022-10-26T08:58:42;22.60;99.90
52555;DHT22;38455;52.710;6.502;2022-10-26T09:01:10;23.30;99.90
52555;DHT22;38455;52.710;6.502;2022-10-26T09:03:36;23.70;99.90
52555;DHT22;38455;52.710;6.502;2022-10-26T09:08:32;24.30;99.90
52555;DHT22;38455;52.710;6.502;2022-10-26T09:11:25;24.70;99.90
52555;DHT22;38455;52.710;6.502;2022-10-26T09:14:16;25.40;99.90
52555;DHT22;38455;52.710;6.502;2022-10-26T09:20:05;25.70;97.70
52555;DHT22;38455;52.710;6.502;2022-10-26T09:23:09;25.70;98.50
52555;DHT22;38455;52.710;6.502;2022-10-26T09:25:39;25.70;96.60
52555;DHT22;38455;52.710;6.502;2022-10-26T09:28:16;25.70;98.70
52555;DHT22;38455;52.710;6.502;2022-10-26T09:30:45;25.80;97.90
52555;DHT22;38455;52.710;6.502;2022-10-26T09:33:18;25.60;98.00
52555;DHT22;38455;52.710;6.502;2022-10-26T09:36:02;25.90;96.20
52555;DHT22;38455;52.710;6.502;2022-10-26T09:43:42;27.50;94.20
52555;DHT22;38455;52.710;6.502;2022-10-26T09:46:19;27.80;94.40
52555;DHT22;38455;52.710;6.502;2022-10-26T09:48:50;28.00;92.50
52555;DHT22;38455;52.710;6.502;2022-10-26T09:51:18;26.90;93.70
52555;DHT22;38455;52.710;6.502;2022-10-26T09:53:44;26.00;94.50
52555;DHT22;38455;52.710;6.502;2022-10-26T09:56:11;25.30;95.80
52555;DHT22;38455;52.710;6.502;2022-10-26T09:58:51;24.20;95.90
52555;DHT22;38455;52.710;6.502;2022-10-26T10:01:30;24.30;97.60
52555;DHT22;38455;52.710;6.502;2022-10-26T10:06:42;24.40;98.10
52555;DHT22;38455;52.710;6.502;2022-10-26T10:09:22;25.10;97.40
52555;DHT22;38455;52.710;6.502;2022-10-26T10:14:21;26.60;96.10
52555;DHT22;38455;52.710;6.502;2022-10-26T10:16:55;27.00;95.50
52555;DHT22;38455;52.710;6.502;2022-10-26T10:19:26;27.20;94.20
52555;DHT22;38455;52.710;6.502;2022-10-26T10:21:58;27.50;93.10
52555;DHT22;38455;52.710;6.502;2022-10-26T10:24:32;27.30;93.30
52555;DHT22;38455;52.710;6.502;2022-10-26T10:29:39;27.40;93.30
52555;DHT22;38455;52.710;6.502;2022-10-26T10:32:05;27.70;92.50
52555;DHT22;38455;52.710;6.502;2022-10-26T10:34:32;27.90;92.40
52555;DHT22;38455;52.710;6.502;2022-10-26T10:36:59;28.10;92.20
52555;DHT22;38455;52.710;6.502;2022-10-26T10:39:38;28.10;91.70
52555;DHT22;38455;52.710;6.502;2022-10-26T10:42:10;28.20;90.60
52555;DHT22;38455;52.710;6.502;2022-10-26T10:44:38;27.90;90.80
52555;DHT22;38455;52.710;6.502;2022-10-26T10:47:31;27.70;91.00
52555;DHT22;38455;52.710;6.502;2022-10-26T10:50:03;27.50;90.70
52555;DHT22;38455;52.710;6.502;2022-10-26T10:52:35;27.50;91.60
52555;DHT22;38455;52.710;6.502;2022-10-26T10:55:24;27.80;91.00
52555;DHT22;38455;52.710;6.502;2022-10-26T10:58:14;27.90;90.70
52555;DHT22;38455;52.710;6.502;2022-10-26T11:00:47;27.60;90.40
52555;DHT22;38455;52.710;6.502;2022-10-26T11:03:14;27.40;90.80
52555;DHT22;38455;52.710;6.502;2022-10-26T11:10:39;25.70;92.60
52555;DHT22;38455;52.710;6.502;2022-10-26T11:13:31;25.20;93.80
52555;DHT22;38455;52.710;6.502;2022-10-26T11:16:02;25.00;94.20
52555;DHT22;38455;52.710;6.502;2022-10-26T11:18:34;25.30;94.30
52555;DHT22;38455;52.710;6.502;2022-10-26T11:21:16;25.70;94.20
52555;DHT22;38455;52.710;6.502;2022-10-26T11:24:10;25.80;94.00
52555;DHT22;38455;52.710;6.502;2022-10-26T11:26:45;25.60;94.10
52555;DHT22;38455;52.710;6.502;2022-10-26T11:29:18;25.70;94.00
52555;DHT22;38455;52.710;6.502;2022-10-26T11:31:48;25.90;93.90
52555;DHT22;38455;52.710;6.502;2022-10-26T11:34:28;26.20;94.10
52555;DHT22;38455;52.710;6.502;2022-10-26T11:37:02;26.50;93.10
52555;DHT22;38455;52.710;6.502;2022-10-26T11:39:37;26.60;92.90
52555;DHT22;38455;52.710;6.502;2022-10-26T11:42:08;26.80;92.90
52555;DHT22;38455;52.710;6.502;2022-10-26T11:47:22;27.20;92.00
52555;DHT22;38455;52.710;6.502;2022-10-26T11:50:16;27.60;92.30
52555;DHT22;38455;52.710;6.502;2022-10-26T11:52:57;27.80;91.60
52555;DHT22;38455;52.710;6.502;2022-10-26T11:55:25;27.60;91.70
52555;DHT22;38455;52.710;6.502;2022-10-26T11:57:53;27.60;91.70
52555;DHT22;38455;52.710;6.502;2022-10-26T12:00:21;27.60;91.50
52555;DHT22;38455;52.710;6.502;2022-10-26T12:02:55;27.80;91.20
52555;DHT22;38455;52.710;6.502;2022-10-26T12:05:31;27.90;91.00
52555;DHT22;38455;52.710;6.502;2022-10-26T12:08:02;27.70;90.90
52555;DHT22;38455;52.710;6.502;2022-10-26T12:10:32;27.80;91.10
52555;DHT22;38455;52.710;6.502;2022-10-26T12:13:29;27.60;91.00
52555;DHT22;38455;52.710;6.502;2022-10-26T12:57:21;21.90;99.90
52555;DHT22;38455;52.710;6.502;2022-10-26T13:00:05;21.90;99.90
52555;DHT22;38455;52.710;6.502;2022-10-26T13:08:17;21.60;99.90
52555;DHT22;38455;52.710;6.502;2022-10-26T13:11:45;21.60;99.90
52555;DHT22;38455;52.710;6.502;2022-10-26T13:13:51;21.60;99.90
52555;DHT22;38455;52.710;6.502;2022-10-26T13:16:18;21.60;99.90
52555;DHT22;38455;52.710;6.502;2022-10-26T13:18:45;21.60;99.90
52555;DHT22;38455;52.710;6.502;2022-10-26T13:21:18;21.50;99.90
52555;DHT22;38455;52.710;6.502;2022-10-26T13:23:46;21.50;99.90
52555;DHT22;38455;52.710;6.502;2022-10-26T13:26:15;21.60;99.90
52555;DHT22;38455;52.710;6.502;2022-10-26T13:28:43;21.50;99.90
52555;DHT22;38455;52.710;6.502;2022-10-26T13:39:23;21.30;99.90
52555;DHT22;38455;52.710;6.502;2022-10-26T13:41:52;21.10;99.90
52555;DHT22;38455;52.710;6.502;2022-10-26T13:44:28;21.00;99.90
52555;DHT22;38455;52.710;6.502;2022-10-26T13:47:10;20.90;99.90
52555;DHT22;38455;52.710;6.502;2022-10-26T13:49:41;20.90;99.90
52555;DHT22;38455;52.710;6.502;2022-10-26T13:52:18;20.70;99.90
52555;DHT22;38455;52.710;6.502;2022-10-26T13:54:56;20.70;99.90
52555;DHT22;38455;52.710;6.502;2022-10-26T13:57:35;20.60;99.90
52555;DHT22;38455;52.710;6.502;2022-10-26T14:00:18;20.60;99.90
52555;DHT22;38455;52.710;6.502;2022-10-26T14:02:44;20.60;99.90
52555;DHT22;38455;52.710;6.502;2022-10-26T14:05:12;20.60;99.90
52555;DHT22;38455;52.710;6.502;2022-10-26T14:07:53;20.50;99.90
52555;DHT22;38455;52.710;6.502;2022-10-26T14:10:38;20.40;99.90
52555;DHT22;38455;52.710;6.502;2022-10-26T14:13:11;20.40;99.90
52555;DHT22;38455;52.710;6.502;2022-10-26T14:15:42;20.30;99.90
52555;DHT22;38455;52.710;6.502;2022-10-26T14:18:17;20.20;99.90
52555;DHT22;38455;52.710;6.502;2022-10-26T14:20:51;20.10;99.90
52555;DHT22;38455;52.710;6.502;2022-10-26T14:24:17;20.10;99.90
52555;DHT22;38455;52.710;6.502;2022-10-26T14:26:37;20.00;99.90
52555;DHT22;38455;52.710;6.502;2022-10-26T14:29:03;19.90;99.90
52555;DHT22;38455;52.710;6.502;2022-10-26T14:31:38;19.80;99.90
52555;DHT22;38455;52.710;6.502;2022-10-26T14:34:04;19.70;99.90
52555;DHT22;38455;52.710;6.502;2022-10-26T14:36:35;19.70;99.90
52555;DHT22;38455;52.710;6.502;2022-10-26T14:39:05;19.60;99.90
52555;DHT22;38455;52.710;6.502;2022-10-26T14:41:34;19.60;99.90
52555;DHT22;38455;52.710;6.502;2022-10-26T14:44:00;19.50;99.90
52555;DHT22;38455;52.710;6.502;2022-10-26T14:46:28;19.40;99.90
52555;DHT22;38455;52.710;6.502;2022-10-26T14:48:57;19.40;99.90
52555;DHT22;38455;52.710;6.502;2022-10-26T14:51:35;19.30;99.90
52555;DHT22;38455;52.710;6.502;2022-10-26T14:54:02;19.20;99.90
52555;DHT22;38455;52.710;6.502;2022-10-26T14:59:19;19.10;99.90
52555;DHT22;38455;52.710;6.502;2022-10-26T15:07:15;19.00;99.90
52555;DHT22;38455;52.710;6.502;2022-10-26T15:09:43;19.00;99.90
52555;DHT22;38455;52.710;6.502;2022-10-26T15:12:31;19.00;99.90
52555;DHT22;38455;52.710;6.502;2022-10-26T15:15:15;19.00;99.90
52555;DHT22;38455;52.710;6.502;2022-10-26T15:20:17;18.90;99.90
52555;DHT22;38455;52.710;6.502;2022-10-26T15:22:49;18.90;99.90
52555;DHT22;38455;52.710;6.502;2022-10-26T15:25:21;18.80;99.90
52555;DHT22;38455;52.710;6.502;2022-10-26T15:27:48;18.80;99.90
52555;DHT22;38455;52.710;6.502;2022-10-26T15:30:18;18.80;99.90
52555;DHT22;38455;52.710;6.502;2022-10-26T15:32:44;18.70;99.90
52555;DHT22;38455;52.710;6.502;2022-10-26T15:37:36;18.60;99.90
52555;DHT22;38455;52.710;6.502;2022-10-26T15:40:03;18.50;99.90
52555;DHT22;38455;52.710;6.502;2022-10-26T15:42:29;18.50;99.90
52555;DHT22;38455;52.710;6.502;2022-10-26T15:44:54;18.40;99.90
52555;DHT22;38455;52.710;6.502;2022-10-26T15:47:20;18.40;99.90
52555;DHT22;38455;52.710;6.502;2022-10-26T15:49:46;18.30;99.90
52555;DHT22;38455;52.710;6.502;2022-10-26T15:52:12;18.40;99.90
52555;DHT22;38455;52.710;6.502;2022-10-26T15:54:38;18.30;99.90
52555;DHT22;38455;52.710;6.502;2022-10-26T15:57:04;18.40;99.90
52555;DHT22;38455;52.710;6.502;2022-10-26T15:59:31;18.30;99.90
52555;DHT22;38455;52.710;6.502;2022-10-26T16:01:56;18.30;99.90
52555;DHT22;38455;52.710;6.502;2022-10-26T16:04:22;18.30;99.90
52555;DHT22;38455;52.710;6.502;2022-10-26T16:06:48;18.20;99.90
52555;DHT22;38455;52.710;6.502;2022-10-26T16:09:15;18.10;99.90
52555;DHT22;38455;52.710;6.502;2022-10-26T16:11:43;18.00;99.90
52555;DHT22;38455;52.710;6.502;2022-10-26T16:14:11;17.90;99.90
52555;DHT22;38455;52.710;6.502;2022-10-26T16:16:37;17.80;99.90
52555;DHT22;38455;52.710;6.502;2022-10-26T16:19:04;17.80;99.90
52555;DHT22;38455;52.710;6.502;2022-10-26T16:21:29;17.70;99.90
52555;DHT22;38455;52.710;6.502;2022-10-26T16:23:55;17.70;99.90
52555;DHT22;38455;52.710;6.502;2022-10-26T16:26:22;17.60;99.90
52555;DHT22;38455;52.710;6.502;2022-10-26T16:28:48;17.60;99.90
52555;DHT22;38455;52.710;6.502;2022-10-26T16:31:16;17.60;99.90
52555;DHT22;38455;52.710;6.502;2022-10-26T16:33:42;17.70;99.90
52555;DHT22;38455;52.710;6.502;2022-10-26T16:36:10;17.70;99.90
52555;DHT22;38455;52.710;6.502;2022-10-26T16:38:36;17.70;99.90
52555;DHT22;38455;52.710;6.502;2022-10-26T16:43:34;17.70;99.90
52555;DHT22;38455;52.710;6.502;2022-10-26T16:46:14;17.60;99.90
52555;DHT22;38455;52.710;6.502;2022-10-26T16:48:41;17.60;99.90
52555;DHT22;38455;52.710;6.502;2022-10-26T16:51:13;17.60;99.90
52555;DHT22;38455;52.710;6.502;2022-10-26T16:53:39;17.60;99.90
52555;DHT22;38455;52.710;6.502;2022-10-26T16:56:13;17.50;99.90
52555;DHT22;38455;52.710;6.502;2022-10-26T16:58:39;17.50;99.90
52555;DHT22;38455;52.710;6.502;2022-10-26T17:01:06;17.50;99.90
52555;DHT22;38455;52.710;6.502;2022-10-26T17:03:32;17.50;99.90
52555;DHT22;38455;52.710;6.502;2022-10-26T17:06:00;17.50;99.90
52555;DHT22;38455;52.710;6.502;2022-10-26T17:08:26;17.40;99.90
52555;DHT22;38455;52.710;6.502;2022-10-26T17:11:00;17.40;99.90
52555;DHT22;38455;52.710;6.502;2022-10-26T17:13:26;17.30;99.90
52555;DHT22;38455;52.710;6.502;2022-10-26T17:15:51;17.20;99.90
52555;DHT22;38455;52.710;6.502;2022-10-26T17:18:17;17.10;99.90
52555;DHT22;38455;52.710;6.502;2022-10-26T17:20:49;16.90;99.90
52555;DHT22;38455;52.710;6.502;2022-10-26T17:23:16;16.80;99.90
52555;DHT22;38455;52.710;6.502;2022-10-26T17:25:42;16.70;99.90
52555;DHT22;38455;52.710;6.502;2022-10-26T17:28:07;16.60;99.90
52555;DHT22;38455;52.710;6.502;2022-10-26T17:30:33;16.50;99.90
52555;DHT22;38455;52.710;6.502;2022-10-26T17:33:00;16.40;99.90
52555;DHT22;38455;52.710;6.502;2022-10-26T17:35:26;16.30;99.90
52555;DHT22;38455;52.710;6.502;2022-10-26T17:37:51;16.20;99.90
52555;DHT22;38455;52.710;6.502;2022-10-26T17:40:17;16.00;99.90
52555;DHT22;38455;52.710;6.502;2022-10-26T17:42:43;16.00;99.90
52555;DHT22;38455;52.710;6.502;2022-10-26T17:45:08;15.90;99.90
52555;DHT22;38455;52.710;6.502;2022-10-26T17:47:34;15.80;99.90
52555;DHT22;38455;52.710;6.502;2022-10-26T17:50:01;15.70;99.90
52555;DHT22;38455;52.710;6.502;2022-10-26T17:52:29;15.60;99.90
52555;DHT22;38455;52.710;6.502;2022-10-26T17:54:54;15.60;99.90
52555;DHT22;38455;52.710;6.502;2022-10-26T17:57:20;15.50;99.90
52555;DHT22;38455;52.710;6.502;2022-10-26T17:59:46;15.50;99.90
52555;DHT22;38455;52.710;6.502;2022-10-26T18:02:12;15.50;99.90
52555;DHT22;38455;52.710;6.502;2022-10-26T18:04:38;15.40;99.90
52555;DHT22;38455;52.710;6.502;2022-10-26T18:07:03;15.30;99.90
52555;DHT22;38455;52.710;6.502;2022-10-26T18:09:29;15.30;99.90
52555;DHT22;38455;52.710;6.502;2022-10-26T18:11:55;15.20;99.90